Time;durP1;ratioP1;P1;durP2;ratioP2;P2;SDS_P1;SDS_P2;PMS_P1;PMS_P2;Temp;Humidity;BMP_temperature;BMP_pressure;BME280_temperature;BME280_humidity;BME280_pressure;Samples;Min_cycle;Max_cycle;Signal;HPM_P1;HPM_P2
2021/06/02 00:01:54;;;;;;;3.43;3.17;;;15.50;31.70;;;;;;5075390;28;20292;-79
2021/06/02 00:04:23;;;;;;;5.97;3.90;;;15.40;32.20;;;;;;5076101;28;20427;-79
2021/06/02 00:06:51;;;;;;;3.70;3.40;;;15.30;32.60;;;;;;5075048;28;20510;-79
2021/06/02 00:09:18;;;;;;;3.67;3.37;;;15.20;32.90;;;;;;5074329;28;20458;-79
2021/06/02 00:11:46;;;;;;;5.50;3.40;;;15.10;33.20;;;;;;5091438;28;20444;-78
2021/06/02 00:14:12;;;;;;;3.73;3.37;;;15.10;34.20;;;;;;5091060;28;20230;-79
2021/06/02 00:16:39;;;;;;;3.80;3.40;;;15.00;34.10;;;;;;5087949;28;20457;-79
2021/06/02 00:19:06;;;;;;;5.60;3.90;;;15.00;34.10;;;;;;5087819;28;20665;-79
2021/06/02 00:21:34;;;;;;;4.30;3.90;;;15.00;34.10;;;;;;5077345;28;20300;-80
2021/06/02 00:24:00;;;;;;;4.20;3.65;;;15.00;34.10;;;;;;5077164;28;20237;-80
2021/06/02 00:26:32;;;;;;;3.95;3.35;;;14.80;33.90;;;;;;5077277;28;20800;-79
2021/06/02 00:29:01;;;;;;;4.72;3.55;;;14.80;33.90;;;;;;5074584;28;20245;-79
2021/06/02 00:31:27;;;;;;;4.38;4.03;;;14.70;33.80;;;;;;5074335;28;20326;-79
2021/06/02 00:33:55;;;;;;;4.15;3.63;;;14.60;34.70;;;;;;5074119;28;20245;-79
2021/06/02 00:36:23;;;;;;;3.67;3.35;;;14.70;33.80;;;;;;5074461;28;20197;-79
2021/06/02 00:38:50;;;;;;;4.10;3.70;;;14.60;34.00;;;;;;5073184;28;20293;-79
2021/06/02 00:41:17;;;;;;;4.38;3.40;;;14.50;34.70;;;;;;5074028;28;20233;-79
2021/06/02 00:43:44;;;;;;;6.60;3.47;;;14.60;34.30;;;;;;5073506;28;20644;-78
2021/06/02 00:46:14;;;;;;;3.45;3.15;;;14.60;33.80;;;;;;5073791;28;20233;-78
2021/06/02 00:48:42;;;;;;;5.00;3.80;;;14.60;34.40;;;;;;5076909;28;20273;-81
2021/06/02 00:51:10;;;;;;;3.95;3.55;;;14.50;34.20;;;;;;5087789;28;20204;-79
2021/06/02 00:53:37;;;;;;;4.88;3.83;;;14.50;34.90;;;;;;5075601;28;20681;-79
2021/06/02 00:56:05;;;;;;;3.80;3.50;;;14.50;34.90;;;;;;5076821;28;20312;-80
2021/06/02 00:58:36;;;;;;;4.38;3.80;;;14.40;35.10;;;;;;5077716;28;20237;-80
2021/06/02 01:01:03;;;;;;;5.07;3.60;;;14.40;35.40;;;;;;5077595;28;20285;-79
2021/06/02 01:03:35;;;;;;;5.60;3.30;;;14.30;35.60;;;;;;5076575;28;20202;-79
2021/06/02 01:06:02;;;;;;;4.05;3.75;;;14.30;35.60;;;;;;5075269;28;20313;-78
2021/06/02 01:08:30;;;;;;;4.38;3.85;;;14.30;36.00;;;;;;5078476;28;20320;-80
2021/06/02 01:10:58;;;;;;;4.45;4.03;;;14.20;35.80;;;;;;5081866;28;20205;-78
2021/06/02 01:13:26;;;;;;;3.50;3.20;;;14.20;35.90;;;;;;5081151;28;20197;-78
2021/06/02 01:15:53;;;;;;;4.38;3.40;;;14.20;35.90;;;;;;5093032;28;20271;-80
2021/06/02 01:18:20;;;;;;;4.28;3.30;;;14.20;35.70;;;;;;5093687;28;20231;-79
2021/06/02 01:20:49;;;;;;;4.18;3.20;;;14.20;35.90;;;;;;5096247;28;20213;-79
2021/06/02 01:23:18;;;;;;;4.65;3.85;;;14.10;35.90;;;;;;5094629;28;20206;-80
2021/06/02 01:25:45;;;;;;;3.50;3.17;;;14.00;36.30;;;;;;5084054;28;20313;-79
2021/06/02 01:28:12;;;;;;;3.55;3.25;;;14.00;36.60;;;;;;5084071;28;20194;-79
2021/06/02 01:30:38;;;;;;;3.85;3.47;;;14.00;37.50;;;;;;5088322;28;20208;-79
2021/06/02 01:33:34;;;;;;;4.03;3.45;;;13.90;36.80;;;;;;5081451;28;20338;-78
2021/06/02 01:36:04;;;;;;;3.70;3.40;;;13.90;37.10;;;;;;5078290;28;20312;-80
2021/06/02 01:39:12;;;;;;;3.53;3.22;;;13.90;37.00;;;;;;5078622;28;20297;-79
2021/06/02 01:42:10;;;;;;;3.70;3.30;;;13.80;37.30;;;;;;5078547;28;20213;-79
2021/06/02 01:45:06;;;;;;;3.78;3.45;;;13.80;37.30;;;;;;5076222;28;20313;-78
2021/06/02 01:48:18;;;;;;;3.30;3.10;;;13.80;36.90;;;;;;5082837;28;20230;-77
2021/06/02 01:51:26;;;;;;;4.93;3.42;;;13.80;37.20;;;;;;5052578;28;20239;-78
2021/06/02 01:54:20;;;;;;;6.00;3.60;;;13.80;37.30;;;;;;5040226;28;20540;-78
2021/06/02 01:57:23;;;;;;;3.30;3.10;;;13.70;37.50;;;;;;5079153;28;20628;-78
2021/06/02 02:00:08;;;;;;;4.60;4.00;;;13.70;37.80;;;;;;5076348;28;20221;-78
2021/06/02 02:03:14;;;;;;;4.18;3.78;;;13.70;38.00;;;;;;5077077;28;20627;-78
2021/06/02 02:05:58;;;;;;;4.55;3.70;;;13.60;38.20;;;;;;5077219;28;20649;-77
2021/06/02 02:08:43;;;;;;;4.68;3.58;;;13.60;38.20;;;;;;5076584;28;20293;-76
2021/06/02 02:11:29;;;;;;;4.68;3.47;;;13.60;37.90;;;;;;5076672;28;20291;-77
2021/06/02 02:14:17;;;;;;;4.10;3.70;;;13.60;38.10;;;;;;5076299;28;20236;-78
2021/06/02 02:16:57;;;;;;;4.10;3.67;;;13.60;38.20;;;;;;5077261;28;20293;-77
2021/06/02 02:19:46;;;;;;;3.85;3.55;;;13.50;38.30;;;;;;5075312;28;20243;-78
2021/06/02 02:22:28;;;;;;;3.75;3.35;;;13.50;38.30;;;;;;5082020;28;20564;-78
2021/06/02 02:25:01;;;;;;;8.13;3.42;;;13.50;38.50;;;;;;5086041;28;20236;-77
2021/06/02 02:27:40;;;;;;;5.03;3.80;;;13.40;38.70;;;;;;5075973;28;20308;-78
2021/06/02 02:30:09;;;;;;;4.78;3.20;;;13.30;39.10;;;;;;5078180;28;20206;-76
2021/06/02 02:32:53;;;;;;;4.20;3.50;;;13.30;39.10;;;;;;5079365;28;20206;-77
2021/06/02 02:35:35;;;;;;;7.00;3.65;;;13.30;39.20;;;;;;5076789;28;20672;-77
2021/06/02 02:38:07;;;;;;;4.80;3.03;;;13.20;39.30;;;;;;5076249;28;20631;-77
2021/06/02 02:40:47;;;;;;;3.80;3.35;;;13.20;40.20;;;;;;5078296;28;20193;-77
2021/06/02 02:43:24;;;;;;;4.03;3.72;;;13.10;39.60;;;;;;5077806;28;20221;-77
2021/06/02 02:46:03;;;;;;;4.40;3.45;;;13.00;39.60;;;;;;5074626;28;20233;-78
2021/06/02 02:48:37;;;;;;;3.58;3.28;;;13.10;39.80;;;;;;5074871;28;20657;-77
2021/06/02 02:51:14;;;;;;;5.88;3.45;;;13.10;39.50;;;;;;5075000;28;20307;-77
2021/06/02 02:53:48;;;;;;;3.50;3.20;;;13.20;39.20;;;;;;5075653;28;20678;-77
2021/06/02 02:56:20;;;;;;;4.00;3.60;;;13.20;39.30;;;;;;5076045;28;20581;-77
2021/06/02 02:59:00;;;;;;;4.93;3.42;;;13.10;39.60;;;;;;5077177;28;20232;-79
2021/06/02 03:01:38;;;;;;;3.95;3.65;;;13.00;39.70;;;;;;5080586;28;20296;-77
2021/06/02 03:04:09;;;;;;;3.38;3.08;;;13.00;40.40;;;;;;5081087;28;20592;-78
2021/06/02 03:06:41;;;;;;;4.88;3.40;;;12.80;40.80;;;;;;5076885;28;20264;-77
2021/06/02 03:09:15;;;;;;;3.58;3.10;;;12.80;41.00;;;;;;5074882;28;20269;-77
2021/06/02 03:11:49;;;;;;;5.03;4.07;;;12.80;41.00;;;;;;5076832;28;20211;-77
2021/06/02 03:14:19;;;;;;;3.30;3.10;;;12.80;41.00;;;;;;5080814;28;20229;-77
2021/06/02 03:16:58;;;;;;;4.30;3.90;;;12.80;41.40;;;;;;5076508;28;20198;-78
2021/06/02 03:19:35;;;;;;;4.13;3.80;;;12.80;41.40;;;;;;5078420;28;20209;-77
2021/06/02 03:22:04;;;;;;;4.15;3.75;;;12.70;41.70;;;;;;5078822;28;20240;-77
2021/06/02 03:24:57;;;;;;;3.50;3.20;;;12.70;42.00;;;;;;5075186;28;20314;-77
2021/06/02 03:27:33;;;;;;;6.28;4.13;;;12.60;41.90;;;;;;5074205;28;20317;-79
2021/06/02 03:30:09;;;;;;;4.53;4.13;;;12.50;41.80;;;;;;5073865;28;20237;-78
2021/06/02 03:33:02;;;;;;;4.50;3.72;;;12.50;41.80;;;;;;5075295;28;20229;-77
2021/06/02 03:35:35;;;;;;;4.57;4.07;;;12.50;41.80;;;;;;5079374;28;20507;-78
2021/06/02 03:38:16;;;;;;;4.00;3.60;;;12.40;41.70;;;;;;5088581;28;20293;-78
2021/06/02 03:40:53;;;;;;;4.95;3.50;;;12.40;42.00;;;;;;5089317;28;20638;-78
2021/06/02 03:43:25;;;;;;;3.60;3.30;;;12.40;42.00;;;;;;5093248;28;20213;-80
2021/06/02 03:46:06;;;;;;;4.32;3.92;;;12.30;41.90;;;;;;5077693;28;20268;-78
2021/06/02 03:48:41;;;;;;;4.72;3.55;;;12.30;42.10;;;;;;5076490;28;20210;-78
2021/06/02 03:51:28;;;;;;;3.97;3.58;;;12.30;42.50;;;;;;5080635;28;20283;-80
2021/06/02 03:54:07;;;;;;;4.95;3.47;;;12.40;42.40;;;;;;5075569;28;20285;-78
2021/06/02 03:57:00;;;;;;;3.80;3.50;;;12.40;42.50;;;;;;5074764;28;20225;-79
2021/06/02 03:59:38;;;;;;;3.63;3.35;;;12.40;41.70;;;;;;5076147;28;20209;-78
2021/06/02 04:02:11;;;;;;;3.35;3.05;;;12.50;41.80;;;;;;5078707;28;20193;-77
2021/06/02 04:04:50;;;;;;;4.72;3.30;;;12.60;41.90;;;;;;5077122;28;20249;-78
2021/06/02 04:07:27;;;;;;;3.97;3.55;;;12.60;41.90;;;;;;5078146;28;20301;-76
2021/06/02 04:10:04;;;;;;;3.88;3.58;;;12.70;42.00;;;;;;5086867;28;20209;-78
2021/06/02 04:12:49;;;;;;;3.75;3.45;;;12.70;42.00;;;;;;5093920;28;20271;-78
2021/06/02 04:15:16;;;;;;;4.95;4.10;;;12.80;42.10;;;;;;5090793;28;20229;-77
2021/06/02 04:17:49;;;;;;;3.80;3.50;;;12.80;42.10;;;;;;5077362;28;20202;-78
2021/06/02 04:20:17;;;;;;;3.80;3.50;;;12.80;42.20;;;;;;5092479;28;20209;-79
2021/06/02 04:22:47;;;;;;;4.20;3.40;;;12.80;42.10;;;;;;5096046;28;20202;-80
2021/06/02 04:25:15;;;;;;;4.25;3.90;;;12.90;42.10;;;;;;5090400;28;20230;-78
2021/06/02 04:27:46;;;;;;;3.60;3.30;;;13.20;41.00;;;;;;5088977;28;20232;-79
2021/06/02 04:30:15;;;;;;;3.88;3.53;;;13.40;39.70;;;;;;5091113;28;20301;-79
2021/06/02 04:32:45;;;;;;;4.20;3.60;;;13.60;39.20;;;;;;5090328;28;20198;-79
2021/06/02 04:35:15;;;;;;;4.10;3.20;;;13.60;39.50;;;;;;5075625;28;20222;-79
2021/06/02 04:37:42;;;;;;;4.13;3.33;;;13.60;39.30;;;;;;5075431;28;20263;-79
2021/06/02 04:40:10;;;;;;;3.00;2.70;;;13.80;38.90;;;;;;5075595;28;20225;-79
2021/06/02 04:42:38;;;;;;;3.75;3.45;;;14.00;38.30;;;;;;5075978;28;20217;-78
2021/06/02 04:45:06;;;;;;;3.40;3.10;;;14.50;37.30;;;;;;5079026;28;20222;-78
2021/06/02 04:47:34;;;;;;;3.30;3.10;;;15.00;36.00;;;;;;5078916;28;20642;-80
2021/06/02 04:50:14;;;;;;;3.70;3.40;;;15.30;34.40;;;;;;5080367;28;20213;-81
2021/06/02 04:53:27;;;;;;;3.73;3.43;;;15.70;34.80;;;;;;5082970;28;20456;-80
2021/06/02 04:56:30;;;;;;;4.97;3.53;;;16.60;32.90;;;;;;5077520;28;20563;-77
2021/06/02 04:59:24;;;;;;;3.30;3.00;;;18.20;28.70;;;;;;5077081;28;20852;-76
2021/06/02 05:02:11;;;;;;;4.20;3.80;;;19.00;27.30;;;;;;5084938;28;20441;-77
2021/06/02 05:05:04;;;;;;;3.20;2.80;;;19.00;28.20;;;;;;5086064;28;20483;-76
2021/06/02 05:08:21;;;;;;;3.80;3.50;;;19.40;26.70;;;;;;5082496;28;20481;-77
2021/06/02 05:11:17;;;;;;;3.60;3.30;;;19.00;27.80;;;;;;5076128;28;20458;-77
2021/06/02 05:14:33;;;;;;;4.63;3.03;;;19.20;27.00;;;;;;5076404;28;20509;-77
2021/06/02 05:17:35;;;;;;;3.53;3.17;;;19.50;26.70;;;;;;5073315;28;20483;-77
2021/06/02 05:24:22;;;;;;;3.30;3.00;;;22.70;22.60;;;;;;5076568;28;20548;-76
2021/06/02 05:27:25;;;;;;;3.70;2.80;;;23.70;20.10;;;;;;5082509;28;20505;-76
2021/06/02 05:30:27;;;;;;;3.20;2.20;;;24.00;20.00;;;;;;5074576;28;20595;-77
2021/06/02 05:33:33;;;;;;;3.93;3.00;;;24.50;19.20;;;;;;5073606;28;20462;-77
2021/06/02 05:36:48;;;;;;;6.40;2.93;;;24.80;18.60;;;;;;5074049;28;20562;-77
2021/06/02 05:39:33;;;;;;;3.23;2.93;;;25.10;18.00;;;;;;5074137;28;20468;-77
2021/06/02 05:42:18;;;;;;;3.27;3.07;;;24.90;17.90;;;;;;5074893;28;20449;-78
2021/06/02 05:45:22;;;;;;;5.40;2.80;;;25.30;17.50;;;;;;5076251;28;20434;-78
2021/06/02 05:48:34;;;;;;;2.93;2.50;;;25.10;17.30;;;;;;5071566;28;20855;-77
2021/06/02 05:51:50;;;;;;;3.60;2.73;;;25.10;17.50;;;;;;5072224;28;20527;-78
2021/06/02 05:55:06;;;;;;;4.13;3.40;;;25.10;17.60;;;;;;5078083;28;20509;-78
2021/06/02 05:58:28;;;;;;;3.40;2.87;;;25.30;17.60;;;;;;5077777;28;20872;-77
2021/06/02 06:01:33;;;;;;;6.17;2.83;;;24.70;18.90;;;;;;5080048;28;20462;-78
2021/06/02 06:04:57;;;;;;;3.97;2.93;;;24.90;17.90;;;;;;5070933;28;20493;-78
2021/06/02 06:07:57;;;;;;;3.53;2.97;;;25.60;16.70;;;;;;5083206;28;20575;-78
2021/06/02 06:10:48;;;;;;;6.43;4.00;;;25.40;16.90;;;;;;5055160;28;20455;-78
2021/06/02 06:13:37;;;;;;;7.23;2.77;;;25.30;17.80;;;;;;5080261;28;20492;-78
2021/06/02 06:16:28;;;;;;;3.13;2.83;;;25.30;17.10;;;;;;5080068;28;20555;-78
2021/06/02 06:19:19;;;;;;;3.10;2.90;;;25.60;16.50;;;;;;5081144;28;20499;-77
2021/06/02 06:22:18;;;;;;;5.53;2.87;;;25.60;16.50;;;;;;5081857;28;20428;-78
2021/06/02 06:24:50;;;;;;;3.17;2.70;;;24.70;17.50;;;;;;5082974;28;21205;-78
2021/06/02 06:27:26;;;;;;;3.70;3.00;;;24.80;17.90;;;;;;5079613;28;20490;-78
2021/06/02 06:29:58;;;;;;;3.87;3.13;;;21.90;21.30;;;;;;5076920;28;20451;-77
2021/06/02 06:32:26;;;;;;;6.17;3.30;;;23.30;19.90;;;;;;5076793;28;20517;-77
2021/06/02 06:34:54;;;;;;;3.43;3.13;;;24.40;18.60;;;;;;5076097;28;20509;-77
2021/06/02 06:37:22;;;;;;;3.47;2.70;;;25.00;18.00;;;;;;5076800;28;20504;-77
2021/06/02 06:39:52;;;;;;;5.27;4.07;;;23.40;19.60;;;;;;5075465;28;20895;-78
2021/06/02 06:42:22;;;;;;;13.77;3.63;;;22.50;21.00;;;;;;5075460;28;20954;-79
2021/06/02 06:44:54;;;;;;;6.33;3.40;;;22.70;20.90;;;;;;5076699;28;20482;-79
2021/06/02 06:47:21;;;;;;;4.77;3.30;;;22.20;21.10;;;;;;5077367;28;20618;-77
2021/06/02 06:49:51;;;;;;;3.60;3.30;;;22.90;20.50;;;;;;5078463;28;20548;-79
2021/06/02 06:52:21;;;;;;;4.13;3.10;;;23.70;19.10;;;;;;5077356;28;20468;-79
2021/06/02 06:54:48;;;;;;;3.60;3.30;;;24.60;18.30;;;;;;5077234;28;20587;-79
2021/06/02 06:57:17;;;;;;;4.53;2.93;;;25.10;17.30;;;;;;5079087;28;20478;-79
2021/06/02 06:59:46;;;;;;;9.10;4.50;;;24.30;18.20;;;;;;5078055;28;20543;-79
2021/06/02 07:02:14;;;;;;;3.07;2.77;;;23.00;19.80;;;;;;5078137;28;20478;-79
2021/06/02 07:04:42;;;;;;;3.63;3.23;;;22.70;19.60;;;;;;5077067;28;20535;-78
2021/06/02 07:07:09;;;;;;;3.17;2.80;;;22.40;19.70;;;;;;5077536;28;20484;-78
2021/06/02 07:09:36;;;;;;;4.20;3.47;;;22.20;18.90;;;;;;5087993;28;20803;-79
2021/06/02 07:12:04;;;;;;;4.47;3.60;;;21.60;20.60;;;;;;5087111;28;20554;-77
2021/06/02 07:14:32;;;;;;;3.77;3.07;;;21.40;20.90;;;;;;5077797;28;20497;-78
2021/06/02 07:17:05;;;;;;;3.00;2.80;;;21.20;20.90;;;;;;5083336;28;20461;-79
2021/06/02 07:19:33;;;;;;;5.97;3.30;;;21.10;21.40;;;;;;5083084;28;20459;-79
2021/06/02 07:22:02;;;;;;;3.47;3.17;;;21.00;21.40;;;;;;5082508;28;20444;-77
2021/06/02 07:24:29;;;;;;;3.13;2.90;;;20.90;21.30;;;;;;5081709;28;20668;-78
2021/06/02 07:26:56;;;;;;;4.03;3.27;;;20.90;21.30;;;;;;5084869;28;20497;-78
2021/06/02 07:29:23;;;;;;;4.00;3.40;;;21.00;21.40;;;;;;5082971;28;20467;-78
2021/06/02 07:31:50;;;;;;;4.57;3.00;;;21.00;21.40;;;;;;5090076;28;20433;-79
2021/06/02 07:34:19;;;;;;;8.97;3.83;;;20.60;21.90;;;;;;5086241;28;20467;-78
2021/06/02 07:36:46;;;;;;;6.47;3.60;;;20.40;22.20;;;;;;5088723;28;20467;-79
2021/06/02 07:39:12;;;;;;;3.27;2.80;;;20.30;22.50;;;;;;5092198;28;20425;-78
2021/06/02 07:41:39;;;;;;;3.43;2.90;;;20.60;22.30;;;;;;5088707;28;21059;-81
2021/06/02 07:44:06;;;;;;;3.60;3.30;;;20.80;21.20;;;;;;5078648;28;20445;-76
2021/06/02 07:46:34;;;;;;;5.67;3.37;;;20.90;21.30;;;;;;5077918;28;20478;-78
2021/06/02 07:49:00;;;;;;;3.50;3.10;;;21.00;21.40;;;;;;5077682;28;20429;-77
2021/06/02 07:51:28;;;;;;;4.37;3.00;;;21.00;21.40;;;;;;5076893;28;20414;-78
2021/06/02 07:53:55;;;;;;;2.97;2.67;;;21.10;21.50;;;;;;5077991;28;20426;-78
2021/06/02 07:56:21;;;;;;;4.47;3.20;;;21.20;21.50;;;;;;5077279;28;20641;-78
2021/06/02 07:58:47;;;;;;;3.43;3.13;;;21.30;21.60;;;;;;5077277;28;20429;-78
2021/06/02 08:01:14;;;;;;;6.00;3.37;;;21.50;21.80;;;;;;5077165;28;20892;-78
2021/06/02 08:03:40;;;;;;;3.10;2.80;;;21.40;21.70;;;;;;5078516;28;20513;-78
2021/06/02 08:06:07;;;;;;;4.27;3.30;;;21.20;21.60;;;;;;5079613;28;20478;-79
2021/06/02 08:08:35;;;;;;;7.47;3.10;;;21.20;21.60;;;;;;5078052;28;20549;-78
2021/06/02 08:11:01;;;;;;;3.13;2.73;;;21.40;22.20;;;;;;5079381;28;20470;-79
2021/06/02 08:13:28;;;;;;;3.80;2.70;;;21.70;21.90;;;;;;5081780;28;20505;-79
2021/06/02 08:15:54;;;;;;;4.20;3.30;;;22.00;22.10;;;;;;5077784;28;20847;-78
2021/06/02 08:18:20;;;;;;;5.53;3.20;;;21.90;22.10;;;;;;5077029;28;20458;-78
2021/06/02 08:20:47;;;;;;;3.07;2.77;;;21.70;21.70;;;;;;5077961;28;20455;-81
2021/06/02 08:23:13;;;;;;;3.93;3.00;;;21.70;21.80;;;;;;5078190;28;20456;-78
2021/06/02 08:25:41;;;;;;;9.17;3.30;;;21.90;20.40;;;;;;5075792;28;20470;-79
2021/06/02 08:28:07;;;;;;;5.70;2.93;;;22.00;21.70;;;;;;5077583;28;20632;-81
2021/06/02 08:30:34;;;;;;;4.97;3.30;;;22.10;21.80;;;;;;5076993;28;20529;-77
2021/06/02 08:33:00;;;;;;;3.93;3.63;;;22.20;21.40;;;;;;5079141;28;20447;-79
2021/06/02 08:35:27;;;;;;;5.20;3.07;;;22.10;22.20;;;;;;5081408;28;20490;-78
2021/06/02 08:37:55;;;;;;;4.10;3.00;;;22.30;22.10;;;;;;5084267;28;20513;-78
2021/06/02 08:40:22;;;;;;;4.30;3.47;;;22.50;21.20;;;;;;5076317;28;20482;-79
2021/06/02 08:42:50;;;;;;;4.10;3.60;;;22.60;20.30;;;;;;5075676;28;20964;-79
2021/06/02 08:45:18;;;;;;;11.43;5.90;;;22.80;18.70;;;;;;5074339;28;20462;-79
2021/06/02 08:47:46;;;;;;;13.67;6.63;;;22.80;18.90;;;;;;5074532;28;20517;-78
2021/06/02 08:50:14;;;;;;;4.87;2.90;;;22.90;18.60;;;;;;5074328;28;20452;-79
2021/06/02 08:52:43;;;;;;;5.40;3.20;;;22.80;19.10;;;;;;5075235;28;20535;-78
2021/06/02 08:55:11;;;;;;;7.27;3.23;;;22.90;19.40;;;;;;5075885;28;20467;-79
2021/06/02 08:57:39;;;;;;;4.17;3.77;;;23.00;19.70;;;;;;5075746;28;20866;-78
2021/06/02 09:00:09;;;;;;;3.10;2.90;;;23.10;19.90;;;;;;5076446;28;20490;-78
2021/06/02 09:02:38;;;;;;;4.20;2.93;;;23.20;17.60;;;;;;5077455;28;20564;-79
2021/06/02 09:05:05;;;;;;;3.83;2.63;;;23.10;17.50;;;;;;5078443;28;20487;-79
2021/06/02 09:07:32;;;;;;;5.00;2.93;;;23.20;17.70;;;;;;5079552;28;20488;-78
2021/06/02 09:10:01;;;;;;;7.23;3.93;;;23.30;18.80;;;;;;5094846;28;20454;-78
2021/06/02 09:12:36;;;;;;;3.63;3.17;;;23.40;19.40;;;;;;5086035;28;20440;-78
2021/06/02 09:15:05;;;;;;;9.10;4.33;;;23.50;20.10;;;;;;5079576;28;20544;-79
2021/06/02 09:17:46;;;;;;;7.63;4.60;;;23.70;19.40;;;;;;5089632;28;20468;-78
2021/06/02 09:20:12;;;;;;;5.33;3.70;;;23.70;19.10;;;;;;5092097;28;20463;-78
2021/06/02 09:22:39;;;;;;;3.17;2.87;;;23.80;19.20;;;;;;5084195;28;20520;-78
2021/06/02 09:25:06;;;;;;;5.63;2.80;;;24.00;18.40;;;;;;5083197;28;20496;-78
2021/06/02 09:27:45;;;;;;;3.23;2.90;;;24.10;17.10;;;;;;5088631;28;20479;-78
2021/06/02 09:30:14;;;;;;;3.20;2.90;;;24.10;16.50;;;;;;5095706;28;20507;-79
2021/06/02 09:32:53;;;;;;;2.50;2.30;;;24.30;16.60;;;;;;5095388;28;20544;-78
2021/06/02 09:35:20;;;;;;;3.90;2.70;;;24.60;15.50;;;;;;5087455;28;20504;-79
2021/06/02 09:37:57;;;;;;;9.33;2.80;;;24.70;15.50;;;;;;5083801;28;20437;-80
2021/06/02 09:40:26;;;;;;;4.70;3.10;;;24.50;16.20;;;;;;5084084;28;20430;-80
2021/06/02 09:42:53;;;;;;;4.40;3.27;;;24.50;15.40;;;;;;5084369;28;20458;-79
2021/06/02 09:45:21;;;;;;;4.90;3.03;;;24.60;16.60;;;;;;5091002;28;20477;-78
2021/06/02 09:47:51;;;;;;;3.33;2.90;;;24.60;16.00;;;;;;5091326;28;20465;-78
2021/06/02 09:50:26;;;;;;;3.23;2.80;;;24.60;16.30;;;;;;5085390;28;20430;-78
2021/06/02 09:52:54;;;;;;;5.07;2.90;;;24.60;17.40;;;;;;5082581;28;20448;-78
2021/06/02 09:55:22;;;;;;;3.50;2.80;;;24.70;16.80;;;;;;5080410;28;20529;-78
2021/06/02 09:57:56;;;;;;;3.67;3.37;;;24.70;15.90;;;;;;5080391;28;20477;-79
2021/06/02 10:00:23;;;;;;;2.87;2.63;;;24.80;15.60;;;;;;5084067;28;20472;-78
2021/06/02 10:03:01;;;;;;;3.60;3.20;;;24.90;15.70;;;;;;5087960;28;20447;-78
2021/06/02 10:05:35;;;;;;;3.37;3.17;;;24.80;15.60;;;;;;5086256;28;20493;-78
2021/06/02 10:08:02;;;;;;;4.10;3.23;;;24.80;15.70;;;;;;5089300;28;20568;-79
2021/06/02 10:10:28;;;;;;;3.20;3.00;;;24.60;15.50;;;;;;5090950;28;20628;-79
2021/06/02 10:13:01;;;;;;;4.20;3.10;;;24.70;15.60;;;;;;5081281;28;20811;-79
2021/06/02 10:15:30;;;;;;;3.17;2.93;;;25.00;15.80;;;;;;5080609;28;20451;-79
2021/06/02 10:17:57;;;;;;;3.80;2.50;;;25.10;15.80;;;;;;5080174;28;20425;-80
2021/06/02 10:20:25;;;;;;;7.90;2.70;;;25.20;15.40;;;;;;5080677;28;20829;-79
2021/06/02 10:22:53;;;;;;;3.20;2.87;;;25.30;14.50;;;;;;5080694;28;20517;-79
2021/06/02 10:25:20;;;;;;;2.67;2.50;;;25.50;14.20;;;;;;5084426;28;20499;-80
2021/06/02 10:27:49;;;;;;;10.00;3.00;;;25.50;13.70;;;;;;5081355;28;20519;-79
2021/06/02 10:30:17;;;;;;;3.00;2.70;;;25.70;13.00;;;;;;5082515;28;20456;-79
2021/06/02 10:32:43;;;;;;;4.30;2.30;;;24.80;13.70;;;;;;5080797;28;20942;-79
2021/06/02 10:35:11;;;;;;;5.13;2.30;;;25.10;13.10;;;;;;5081806;28;20474;-79
2021/06/02 10:37:42;;;;;;;2.67;2.47;;;25.30;12.50;;;;;;5080658;28;20438;-80
2021/06/02 10:40:13;;;;;;;3.07;2.60;;;25.50;13.10;;;;;;5079631;28;20460;-78
2021/06/02 10:42:46;;;;;;;3.00;2.80;;;25.40;13.60;;;;;;5079998;28;20457;-79
2021/06/02 10:45:20;;;;;;;2.60;2.40;;;25.40;13.90;;;;;;5080090;28;20464;-78
2021/06/02 10:47:53;;;;;;;5.43;2.80;;;25.60;13.50;;;;;;5078890;28;20480;-80
2021/06/02 10:50:32;;;;;;;3.60;2.77;;;25.80;13.40;;;;;;5076381;28;20420;-80
2021/06/02 10:53:01;;;;;;;3.40;2.60;;;25.80;13.30;;;;;;5078081;28;20572;-80
2021/06/02 10:55:37;;;;;;;4.13;2.97;;;25.90;13.30;;;;;;5078067;28;20473;-80
2021/06/02 10:58:27;;;;;;;5.73;2.90;;;25.90;13.20;;;;;;5080796;28;20505;-80
2021/06/02 11:01:09;;;;;;;4.70;2.80;;;26.00;12.80;;;;;;5084526;28;20484;-82
2021/06/02 11:03:39;;;;;;;3.80;3.27;;;26.00;13.00;;;;;;5074723;28;20461;-79
2021/06/02 11:06:37;;;;;;;2.80;2.53;;;26.00;13.50;;;;;;5077618;28;20454;-79
2021/06/02 11:09:23;;;;;;;3.23;2.63;;;26.20;12.70;;;;;;5075814;28;20534;-79
2021/06/02 11:12:05;;;;;;;3.20;2.90;;;26.40;12.20;;;;;;5077543;28;20464;-81
2021/06/02 11:14:32;;;;;;;3.40;2.90;;;26.30;12.70;;;;;;5081320;28;20475;-78
2021/06/02 11:17:10;;;;;;;4.47;3.13;;;26.40;13.00;;;;;;5080109;28;20504;-78
2021/06/02 11:19:39;;;;;;;5.30;3.10;;;25.80;13.50;;;;;;5078878;28;20424;-79
2021/06/02 11:22:07;;;;;;;3.13;2.83;;;26.10;13.00;;;;;;5077082;28;20873;-79
2021/06/02 11:24:41;;;;;;;2.93;2.73;;;25.90;13.20;;;;;;5075928;28;20445;-80
2021/06/02 11:27:35;;;;;;;3.43;2.70;;;26.10;13.10;;;;;;5076497;28;20545;-79
2021/06/02 11:30:07;;;;;;;2.77;2.57;;;26.50;12.20;;;;;;5076371;28;20447;-79
2021/06/02 11:32:57;;;;;;;5.27;3.80;;;26.80;12.20;;;;;;5084739;28;20493;-80
2021/06/02 11:36:12;;;;;;;3.43;2.90;;;26.90;11.80;;;;;;5094583;28;20471;-78
2021/06/02 11:38:41;;;;;;;3.30;3.00;;;27.00;11.90;;;;;;5078310;28;20437;-79
2021/06/02 11:41:10;;;;;;;3.50;3.00;;;26.80;12.20;;;;;;5075882;28;20811;-79
2021/06/02 11:43:37;;;;;;;3.47;2.73;;;26.80;11.90;;;;;;5076470;28;20472;-79
2021/06/02 11:46:04;;;;;;;3.23;2.80;;;26.80;12.30;;;;;;5076315;28;20505;-79
2021/06/02 11:48:38;;;;;;;3.20;2.90;;;26.80;12.40;;;;;;5080038;28;20460;-78
2021/06/02 11:51:09;;;;;;;3.70;2.87;;;27.10;12.10;;;;;;5085191;28;20455;-81
2021/06/02 11:53:44;;;;;;;4.00;2.70;;;27.20;11.40;;;;;;5094456;28;20418;-78
2021/06/02 11:56:13;;;;;;;4.63;3.00;;;27.20;11.70;;;;;;5087159;28;20481;-79
2021/06/02 11:58:40;;;;;;;2.97;2.77;;;27.30;11.40;;;;;;5084088;28;20447;-79
2021/06/02 12:01:07;;;;;;;7.70;3.10;;;27.00;11.30;;;;;;5085826;28;20480;-79
2021/06/02 12:03:33;;;;;;;5.63;2.70;;;27.10;11.10;;;;;;5087592;28;20518;-79
2021/06/02 12:06:00;;;;;;;8.83;2.70;;;27.20;11.10;;;;;;5087589;28;20533;-79
2021/06/02 12:08:27;;;;;;;3.10;2.00;;;27.10;11.30;;;;;;5090517;28;20517;-78
2021/06/02 12:10:57;;;;;;;2.47;2.37;;;27.20;11.20;;;;;;5088221;28;20429;-77
2021/06/02 12:13:27;;;;;;;2.30;2.20;;;27.00;11.50;;;;;;5083213;28;20421;-79
2021/06/02 12:15:55;;;;;;;2.40;2.20;;;27.10;10.70;;;;;;5078164;28;20513;-79
2021/06/02 12:18:34;;;;;;;2.30;2.20;;;26.90;11.40;;;;;;5078382;28;20422;-80
2021/06/02 12:21:10;;;;;;;5.60;2.53;;;27.20;12.00;;;;;;5088435;28;20418;-79
2021/06/02 12:23:45;;;;;;;2.93;2.60;;;26.80;11.70;;;;;;5090507;28;20455;-78
2021/06/02 12:26:18;;;;;;;2.57;2.37;;;27.10;11.40;;;;;;5087526;28;20443;-79
2021/06/02 12:28:47;;;;;;;2.43;2.33;;;27.10;11.30;;;;;;5087585;28;20565;-78
2021/06/02 12:31:28;;;;;;;2.60;2.40;;;26.80;11.30;;;;;;5079617;28;20436;-78
2021/06/02 12:34:10;;;;;;;3.03;2.67;;;26.90;11.50;;;;;;5076987;28;20455;-78
2021/06/02 12:36:42;;;;;;;2.83;2.63;;;26.70;11.50;;;;;;5075347;28;20434;-78
2021/06/02 12:39:10;;;;;;;4.70;2.90;;;26.90;11.70;;;;;;5074294;28;20970;-78
2021/06/02 12:41:38;;;;;;;2.77;2.57;;;26.90;12.10;;;;;;5075993;28;20516;-79
2021/06/02 12:44:07;;;;;;;3.77;2.73;;;27.30;11.30;;;;;;5075536;28;20478;-79
2021/06/02 12:46:33;;;;;;;2.47;2.10;;;27.50;11.00;;;;;;5076032;28;20521;-78
2021/06/02 12:49:04;;;;;;;3.37;2.33;;;27.60;11.40;;;;;;5082928;28;20502;-80
2021/06/02 12:51:31;;;;;;;3.30;2.53;;;27.90;11.50;;;;;;5082013;28;20433;-79
2021/06/02 12:53:57;;;;;;;2.60;2.43;;;27.40;11.10;;;;;;5076619;28;20961;-78
2021/06/02 12:56:23;;;;;;;5.10;2.70;;;27.50;11.40;;;;;;5075772;28;20943;-80
2021/06/02 12:58:52;;;;;;;2.60;2.40;;;27.70;10.80;;;;;;5077212;28;20746;-77
2021/06/02 13:01:21;;;;;;;4.50;2.60;;;27.80;10.70;;;;;;5077126;28;20486;-81
2021/06/02 13:03:49;;;;;;;2.40;2.20;;;27.80;11.00;;;;;;5079340;28;20870;-79
2021/06/02 13:06:17;;;;;;;4.77;2.50;;;27.40;11.70;;;;;;5088278;28;20944;-78
2021/06/02 13:08:43;;;;;;;2.80;2.57;;;27.30;11.80;;;;;;5097089;28;20488;-79
2021/06/02 13:11:11;;;;;;;4.10;2.43;;;27.70;11.50;;;;;;5084564;28;20482;-79
2021/06/02 13:13:38;;;;;;;2.73;2.50;;;28.10;11.40;;;;;;5081553;28;20459;-78
2021/06/02 13:16:07;;;;;;;4.00;2.80;;;28.10;10.80;;;;;;5079198;28;20981;-79
2021/06/02 13:18:35;;;;;;;3.23;2.90;;;27.90;11.30;;;;;;5079015;28;20854;-79
2021/06/02 13:21:10;;;;;;;4.33;2.63;;;27.90;11.40;;;;;;5079820;28;20527;-79
2021/06/02 13:23:36;;;;;;;5.63;3.00;;;28.50;11.30;;;;;;5080485;28;20527;-80
2021/06/02 13:26:07;;;;;;;4.03;2.90;;;29.00;10.10;;;;;;5085670;28;20493;-79
2021/06/02 13:28:41;;;;;;;5.50;2.73;;;28.70;10.40;;;;;;5081434;28;20471;-79
2021/06/02 13:31:08;;;;;;;2.50;2.40;;;28.50;10.70;;;;;;5084287;28;20440;-78